Time;durP1;ratioP1;P1;durP2;ratioP2;P2;SDS_P1;SDS_P2;PMS_P1;PMS_P2;Temp;Humidity;BMP_temperature;BMP_pressure;BME280_temperature;BME280_humidity;BME280_pressure;Samples;Min_cycle;Max_cycle;Signal;HPM_P1;HPM_P2
2022/01/25 00:26:36;;;;;;;64.70;38.27;;;1.40;99.90;;;;;;5114108;28;20172;-58
2022/01/25 00:29:14;;;;;;;59.37;36.70;;;1.40;99.90;;;;;;5114385;28;20172;-59
2022/01/25 00:31:41;;;;;;;60.10;37.50;;;1.40;99.90;;;;;;5114330;28;20165;-59
2022/01/25 00:34:07;;;;;;;66.30;39.13;;;1.40;99.90;;;;;;5114140;28;20219;-59
2022/01/25 00:36:33;;;;;;;63.77;38.37;;;1.40;99.90;;;;;;5114128;28;20176;-59
2022/01/25 00:38:59;;;;;;;63.07;38.63;;;1.40;99.90;;;;;;5114297;28;20204;-59
2022/01/25 00:41:26;;;;;;;64.47;38.90;;;1.50;99.90;;;;;;5114241;28;20186;-59
2022/01/25 00:43:52;;;;;;;60.70;37.90;;;1.50;99.90;;;;;;5114344;28;20626;-59
2022/01/25 00:46:21;;;;;;;65.90;38.63;;;1.50;99.90;;;;;;5114377;28;20181;-58
2022/01/25 00:48:48;;;;;;;60.03;38.40;;;1.50;99.90;;;;;;5114502;28;20166;-59
2022/01/25 00:54:02;;;;;;;62.47;37.53;;;1.50;99.90;;;;;;5114391;28;20188;-59
2022/01/25 00:56:32;;;;;;;59.73;37.90;;;1.50;99.90;;;;;;5114471;28;20258;-59
2022/01/25 00:58:59;;;;;;;60.20;37.37;;;1.50;99.90;;;;;;5113972;28;20691;-59
2022/01/25 01:01:26;;;;;;;64.20;39.50;;;1.50;99.90;;;;;;5113118;28;20180;-59
2022/01/25 01:03:52;;;;;;;48.60;31.17;;;1.60;99.90;;;;;;5114015;28;20177;-59
2022/01/25 01:06:18;;;;;;;63.80;38.83;;;1.50;99.90;;;;;;5113895;28;20185;-59
2022/01/25 01:08:44;;;;;;;65.57;38.27;;;1.50;99.90;;;;;;5112723;28;20527;-59
2022/01/25 01:11:16;;;;;;;61.67;37.17;;;1.50;99.90;;;;;;5112892;28;20690;-60
2022/01/25 01:43:02;;;;;;;62.33;37.07;;;1.40;99.90;;;;;;5117763;28;20169;-59
2022/01/25 01:48:06;;;;;;;61.27;37.33;;;1.30;99.90;;;;;;5118040;27;20200;-59
2022/01/25 01:50:35;;;;;;;61.80;37.30;;;1.30;99.90;;;;;;5117931;28;20169;-59
2022/01/25 01:53:05;;;;;;;65.40;39.73;;;1.20;99.90;;;;;;5117888;28;20651;-59
2022/01/25 01:55:32;;;;;;;65.63;39.63;;;1.30;99.90;;;;;;5116993;28;20167;-59
2022/01/25 01:57:59;;;;;;;65.03;40.70;;;1.30;99.90;;;;;;5116557;28;20183;-59
2022/01/25 02:00:36;;;;;;;69.50;41.57;;;1.30;99.90;;;;;;5117117;28;20184;-59
2022/01/25 02:03:03;;;;;;;68.33;40.37;;;1.20;99.90;;;;;;5117795;28;20188;-59
2022/01/25 02:05:29;;;;;;;65.03;40.07;;;1.20;99.90;;;;;;5116459;28;20263;-59
2022/01/25 02:07:55;;;;;;;52.30;30.93;;;1.20;99.90;;;;;;5117656;28;20173;-59
2022/01/25 02:10:21;;;;;;;66.30;39.67;;;1.20;99.90;;;;;;5098853;28;20661;-59
2022/01/25 02:12:49;;;;;;;64.47;39.50;;;1.20;99.90;;;;;;5116640;28;20172;-59
2022/01/25 02:15:16;;;;;;;65.63;40.90;;;1.30;99.90;;;;;;5116228;28;20247;-59
2022/01/25 02:23:21;;;;;;;66.13;39.90;;;1.20;99.90;;;;;;5117086;28;20172;-59
2022/01/25 02:25:48;;;;;;;61.53;38.63;;;1.30;99.90;;;;;;5117301;28;20176;-59
2022/01/25 02:28:14;;;;;;;63.07;39.60;;;1.30;99.90;;;;;;5117296;28;20188;-59
2022/01/25 02:30:40;;;;;;;64.20;39.50;;;1.20;99.90;;;;;;5115799;28;20176;-59
2022/01/25 02:33:06;;;;;;;65.30;39.97;;;1.30;99.90;;;;;;5115988;28;20262;-59
2022/01/25 02:35:32;;;;;;;61.97;39.57;;;1.30;99.90;;;;;;5116914;28;20612;-59
2022/01/25 02:37:58;;;;;;;66.57;39.87;;;1.20;99.90;;;;;;5116869;28;20180;-59
2022/01/25 02:40:23;;;;;;;67.10;40.93;;;1.30;99.90;;;;;;5115544;28;20191;-59
2022/01/25 02:42:51;;;;;;;65.23;39.87;;;1.30;99.90;;;;;;5116902;28;20175;-59
2022/01/25 02:45:17;;;;;;;66.63;40.50;;;1.30;99.90;;;;;;5116875;28;20188;-59
2022/01/25 02:50:28;;;;;;;64.23;39.83;;;1.50;99.90;;;;;;5116867;28;20179;-59
2022/01/25 02:52:54;;;;;;;64.97;40.50;;;1.40;99.90;;;;;;5116420;28;20268;-59
2022/01/25 02:55:20;;;;;;;65.83;41.63;;;1.50;99.90;;;;;;5116765;28;20589;-59
2022/01/25 02:57:47;;;;;;;69.10;41.50;;;1.50;99.90;;;;;;5115437;28;20200;-59
2022/01/25 03:00:14;;;;;;;63.37;39.77;;;1.60;99.90;;;;;;5098335;28;20533;-59
2022/01/25 03:02:40;;;;;;;66.67;41.10;;;1.50;99.90;;;;;;5116526;28;20555;-59
2022/01/25 03:05:07;;;;;;;66.77;41.60;;;1.60;99.90;;;;;;5116259;28;20177;-59
2022/01/25 03:07:34;;;;;;;65.40;41.30;;;1.60;99.90;;;;;;5115132;28;20180;-59
2022/01/25 03:10:00;;;;;;;65.13;40.50;;;1.60;99.90;;;;;;5116527;28;20191;-59
2022/01/25 03:12:43;;;;;;;63.67;40.40;;;1.50;99.90;;;;;;5116360;28;20173;-59
2022/01/25 03:17:45;;;;;;;66.83;40.27;;;1.40;99.90;;;;;;5116369;27;20553;-59
2022/01/25 03:20:19;;;;;;;63.43;39.47;;;1.40;99.90;;;;;;5116211;28;20232;-59
2022/01/25 03:22:57;;;;;;;64.27;39.17;;;1.40;99.90;;;;;;5116192;27;20178;-59
2022/01/25 03:25:25;;;;;;;60.93;38.10;;;1.40;99.90;;;;;;5116834;28;20214;-59
2022/01/25 03:27:51;;;;;;;62.87;39.27;;;1.50;99.90;;;;;;5116510;28;20183;-59
2022/01/25 03:30:17;;;;;;;61.67;38.47;;;1.50;99.90;;;;;;5114938;28;20181;-59
2022/01/25 03:32:43;;;;;;;64.33;39.37;;;1.40;99.90;;;;;;5115995;28;20180;-60
2022/01/25 03:35:08;;;;;;;65.57;40.23;;;1.50;99.90;;;;;;5115991;28;20261;-60
2022/01/25 03:37:34;;;;;;;67.43;40.17;;;1.50;99.90;;;;;;5114326;28;20587;-59
2022/01/25 03:40:00;;;;;;;64.60;39.80;;;1.40;99.90;;;;;;5114598;28;20719;-59
2022/01/25 03:42:26;;;;;;;61.53;39.33;;;1.50;99.90;;;;;;5115780;28;20180;-59
2022/01/25 03:44:52;;;;;;;61.87;39.50;;;1.40;99.90;;;;;;5115742;28;20615;-59
2022/01/25 03:47:22;;;;;;;63.77;38.70;;;1.40;99.90;;;;;;5114339;28;20691;-59
2022/01/25 03:49:52;;;;;;;62.33;39.27;;;1.40;99.90;;;;;;5114522;28;20170;-59
2022/01/25 03:52:30;;;;;;;61.23;39.97;;;1.40;99.90;;;;;;5115726;28;20176;-59
2022/01/25 03:54:56;;;;;;;59.80;37.83;;;1.30;99.90;;;;;;5115566;28;20172;-60
2022/01/25 03:57:22;;;;;;;59.93;37.77;;;1.30;99.90;;;;;;5115456;27;20184;-59
2022/01/25 03:59:47;;;;;;;57.27;37.00;;;1.30;99.90;;;;;;5096949;28;20229;-59
2022/01/25 04:02:13;;;;;;;61.83;39.50;;;1.30;99.90;;;;;;5114435;28;20672;-59
2022/01/25 04:04:39;;;;;;;58.07;36.40;;;1.20;99.90;;;;;;5115372;28;20188;-59
2022/01/25 04:07:11;;;;;;;61.03;37.20;;;1.10;99.90;;;;;;5114119;28;20184;-59
2022/01/25 04:09:38;;;;;;;59.83;37.83;;;1.10;99.90;;;;;;5114183;28;20164;-59
2022/01/25 04:12:05;;;;;;;61.53;38.63;;;1.10;99.90;;;;;;5115222;28;20522;-59
2022/01/25 04:14:31;;;;;;;61.63;39.03;;;1.20;99.90;;;;;;5115168;28;20213;-59
2022/01/25 04:17:09;;;;;;;62.40;38.70;;;1.20;99.90;;;;;;5114762;28;20296;-59
2022/01/25 04:19:43;;;;;;;61.97;37.47;;;1.20;99.90;;;;;;5115001;28;20204;-59
2022/01/25 04:27:24;;;;;;;66.53;38.80;;;1.40;99.90;;;;;;5114913;28;20609;-59
2022/01/25 04:29:51;;;;;;;63.57;40.03;;;1.50;99.90;;;;;;5113681;28;20180;-59
2022/01/25 04:32:17;;;;;;;67.63;42.03;;;1.50;99.90;;;;;;5114846;28;20221;-59
2022/01/25 04:34:47;;;;;;;61.83;39.20;;;1.60;99.90;;;;;;5114807;28;20264;-59
2022/01/25 04:58:40;;;;;;;62.00;38.73;;;2.00;99.90;;;;;;5114391;28;20207;-59
2022/01/25 05:01:06;;;;;;;62.97;39.83;;;2.10;99.90;;;;;;5114310;28;20199;-59
2022/01/25 05:03:51;;;;;;;59.87;37.93;;;2.10;99.90;;;;;;5114314;28;20172;-59
2022/01/25 05:06:17;;;;;;;59.93;38.30;;;2.10;99.90;;;;;;5114215;28;20181;-59
2022/01/25 05:08:48;;;;;;;67.50;43.70;;;2.10;99.90;;;;;;5112865;28;20188;-59
2022/01/25 05:11:33;;;;;;;60.67;40.17;;;2.20;99.90;;;;;;5114419;28;20607;-59
2022/01/25 05:16:33;;;;;;;57.20;37.70;;;2.30;99.90;;;;;;5112514;28;20215;-59
2022/01/25 05:24:53;;;;;;;52.83;35.17;;;2.30;99.90;;;;;;5091163;28;20193;-59
2022/01/25 05:27:21;;;;;;;57.03;37.83;;;2.30;99.90;;;;;;5109010;28;20249;-59
2022/01/25 05:29:47;;;;;;;62.27;41.07;;;2.30;99.90;;;;;;5113600;28;20181;-59
2022/01/25 05:32:12;;;;;;;77.70;51.53;;;2.40;99.90;;;;;;5095810;28;20264;-59
2022/01/25 05:34:38;;;;;;;70.80;45.20;;;2.40;99.90;;;;;;5113934;28;20610;-59
2022/01/25 05:37:06;;;;;;;138.87;93.87;;;2.30;99.90;;;;;;5113844;28;20558;-59
2022/01/25 05:39:34;;;;;;;63.77;42.97;;;2.40;99.90;;;;;;5113761;28;20204;-59
2022/01/25 05:42:24;;;;;;;71.10;45.67;;;2.40;99.90;;;;;;5114029;28;20214;-59
2022/01/25 05:47:29;;;;;;;134.57;85.10;;;2.30;99.90;;;;;;5113919;28;20184;-59
2022/01/25 05:49:56;;;;;;;141.80;87.73;;;2.40;99.90;;;;;;5112655;28;20168;-59
2022/01/25 05:52:21;;;;;;;106.00;63.67;;;2.50;99.90;;;;;;5112438;28;20695;-59
2022/01/25 05:54:48;;;;;;;201.57;122.33;;;2.50;99.90;;;;;;5113664;28;20266;-59
2022/01/25 05:57:14;;;;;;;140.57;87.27;;;2.50;99.90;;;;;;5112391;28;20196;-59
2022/01/25 05:59:40;;;;;;;135.03;84.73;;;2.50;99.90;;;;;;5113237;28;20194;-56
2022/01/25 06:02:06;;;;;;;79.93;52.53;;;2.50;99.90;;;;;;5112477;28;20184;-57
2022/01/25 06:04:32;;;;;;;67.13;42.23;;;2.50;99.90;;;;;;5111343;28;20180;-57
2022/01/25 06:06:58;;;;;;;64.67;39.67;;;2.50;99.90;;;;;;5113264;28;20174;-57
2022/01/25 06:09:24;;;;;;;64.23;41.00;;;2.40;99.90;;;;;;5112038;28;20185;-57
2022/01/25 06:11:54;;;;;;;51.50;32.70;;;2.40;99.90;;;;;;5112370;28;20187;-55
2022/01/25 06:14:21;;;;;;;59.60;38.50;;;2.50;99.90;;;;;;5113930;28;20214;-56
2022/01/25 06:16:47;;;;;;;64.53;40.07;;;2.50;99.90;;;;;;5113249;28;20269;-57
2022/01/25 06:19:12;;;;;;;63.60;39.93;;;2.40;99.90;;;;;;5112229;28;20665;-57
2022/01/25 06:21:38;;;;;;;60.53;38.17;;;2.50;99.90;;;;;;5115052;28;20229;-57
2022/01/25 06:24:04;;;;;;;64.97;41.53;;;2.50;99.90;;;;;;5098990;28;20192;-57
2022/01/25 06:26:30;;;;;;;65.63;41.97;;;2.60;99.90;;;;;;5116963;28;20173;-56
2022/01/25 06:28:56;;;;;;;65.77;40.17;;;2.60;99.90;;;;;;5116923;28;20181;-56
2022/01/25 06:31:22;;;;;;;63.87;39.13;;;2.50;99.90;;;;;;5117233;28;20169;-57
2022/01/25 06:33:48;;;;;;;66.50;40.70;;;2.60;99.90;;;;;;5117191;28;20174;-57
2022/01/25 06:36:14;;;;;;;61.73;39.43;;;2.50;99.90;;;;;;5117060;28;20256;-56
2022/01/25 06:38:41;;;;;;;64.67;39.60;;;2.60;99.90;;;;;;5117003;28;20200;-56
2022/01/25 06:41:09;;;;;;;63.57;40.57;;;2.60;99.90;;;;;;5116943;28;20170;-57
2022/01/25 06:43:34;;;;;;;64.87;38.90;;;2.50;99.90;;;;;;5115727;28;20622;-57
2022/01/25 06:46:03;;;;;;;60.70;38.67;;;2.60;99.90;;;;;;5115600;28;20185;-57
2022/01/25 06:48:30;;;;;;;61.33;38.73;;;2.50;99.90;;;;;;5115544;28;20220;-56
2022/01/25 06:50:56;;;;;;;57.53;38.43;;;2.50;99.90;;;;;;5115610;28;20264;-57
2022/01/25 06:53:22;;;;;;;55.80;37.03;;;2.40;99.90;;;;;;5116718;28;20195;-58
2022/01/25 06:55:48;;;;;;;61.60;39.17;;;2.50;99.90;;;;;;5115722;28;20630;-57
2022/01/25 06:58:13;;;;;;;67.30;39.77;;;2.50;99.90;;;;;;5117142;28;20221;-57
2022/01/25 07:00:40;;;;;;;66.80;40.90;;;2.60;99.90;;;;;;5115293;28;20546;-56
2022/01/25 07:03:05;;;;;;;65.43;40.07;;;2.60;99.90;;;;;;5115389;28;20628;-57
2022/01/25 07:05:32;;;;;;;68.33;42.87;;;2.60;99.90;;;;;;5116720;28;20180;-57
2022/01/25 07:07:58;;;;;;;69.30;42.80;;;2.60;99.90;;;;;;5116255;28;20177;-56
2022/01/25 07:10:23;;;;;;;71.37;44.40;;;2.80;99.90;;;;;;5097923;28;20276;-57
2022/01/25 07:12:49;;;;;;;70.90;44.93;;;2.70;99.90;;;;;;5098148;28;20204;-56
2022/01/25 07:15:15;;;;;;;77.90;45.77;;;2.80;99.90;;;;;;5115155;28;20203;-56
2022/01/25 07:17:41;;;;;;;74.60;45.33;;;2.90;99.90;;;;;;5114929;28;20188;-55
2022/01/25 07:20:08;;;;;;;80.43;44.67;;;2.80;99.90;;;;;;5116144;28;20650;-56
2022/01/25 07:22:35;;;;;;;76.33;44.63;;;2.90;99.90;;;;;;5114961;28;20188;-57
2022/01/25 07:25:03;;;;;;;74.77;44.17;;;2.90;99.90;;;;;;5115255;28;20270;-56
2022/01/25 07:27:29;;;;;;;73.37;43.27;;;2.90;99.90;;;;;;5116031;28;20513;-55
2022/01/25 07:29:54;;;;;;;76.27;45.23;;;2.90;99.90;;;;;;5115775;28;20191;-57
2022/01/25 07:32:20;;;;;;;76.57;46.40;;;2.90;99.90;;;;;;5115677;28;20178;-57
2022/01/25 07:34:46;;;;;;;75.87;45.43;;;2.90;99.90;;;;;;5115352;28;20177;-57
2022/01/25 07:37:11;;;;;;;78.10;46.67;;;2.90;99.90;;;;;;5115909;28;20177;-57
2022/01/25 07:39:37;;;;;;;78.83;45.67;;;2.80;99.90;;;;;;5115821;28;20645;-57
2022/01/25 07:42:04;;;;;;;73.53;43.50;;;2.90;99.90;;;;;;5115821;28;20533;-57
2022/01/25 07:44:32;;;;;;;77.43;45.23;;;3.10;99.90;;;;;;5115480;28;20177;-57
2022/01/25 07:47:00;;;;;;;73.13;43.30;;;2.90;99.90;;;;;;5115806;28;20177;-57
2022/01/25 07:49:27;;;;;;;86.47;48.30;;;2.80;99.90;;;;;;5115383;28;20613;-56
2022/01/25 07:51:53;;;;;;;74.93;44.77;;;2.80;99.90;;;;;;5114349;28;20184;-56
2022/01/25 07:54:19;;;;;;;73.53;43.57;;;2.80;99.90;;;;;;5115598;28;20172;-57
2022/01/25 07:56:45;;;;;;;74.00;42.70;;;2.80;99.90;;;;;;5115587;28;20216;-57
2022/01/25 07:59:10;;;;;;;75.20;43.33;;;2.90;99.90;;;;;;5115318;28;20228;-57
2022/01/25 08:01:36;;;;;;;69.30;40.40;;;2.90;99.90;;;;;;5114327;28;20257;-57
2022/01/25 08:04:02;;;;;;;75.53;45.30;;;2.90;99.90;;;;;;5115362;28;20181;-56
2022/01/25 08:06:28;;;;;;;70.30;41.43;;;3.00;99.90;;;;;;5115280;28;20701;-57
2022/01/25 08:08:54;;;;;;;71.93;41.63;;;3.00;99.90;;;;;;5115287;28;20180;-55
2022/01/25 08:11:20;;;;;;;69.53;40.87;;;3.10;99.90;;;;;;5115526;28;20222;-55
2022/01/25 08:13:50;;;;;;;67.17;39.30;;;3.20;99.90;;;;;;5115187;28;20180;-57
2022/01/25 08:16:16;;;;;;;67.30;39.90;;;3.00;99.90;;;;;;5113947;28;20188;-55
2022/01/25 08:18:43;;;;;;;66.53;41.07;;;3.00;99.90;;;;;;5115020;28;20752;-56
2022/01/25 08:21:09;;;;;;;58.80;36.07;;;3.00;99.90;;;;;;5113712;28;20232;-56
2022/01/25 08:23:35;;;;;;;64.00;38.40;;;3.10;99.90;;;;;;5114662;28;20181;-57
2022/01/25 08:26:01;;;;;;;64.50;38.67;;;3.10;99.90;;;;;;5096746;28;20177;-57
2022/01/25 08:28:27;;;;;;;62.37;37.13;;;3.20;99.90;;;;;;5114874;28;20200;-56
2022/01/25 08:30:52;;;;;;;63.60;38.23;;;3.10;99.90;;;;;;5113557;28;20192;-56
2022/01/25 08:33:18;;;;;;;70.73;41.90;;;3.20;99.90;;;;;;5114822;28;20177;-56
2022/01/25 08:35:44;;;;;;;60.67;38.60;;;3.30;99.90;;;;;;5114484;28;20180;-57
2022/01/25 08:38:09;;;;;;;66.47;40.47;;;3.30;99.90;;;;;;5114722;28;20180;-57
2022/01/25 08:40:35;;;;;;;63.17;38.60;;;3.30;99.90;;;;;;5114749;28;20188;-57
2022/01/25 08:43:02;;;;;;;68.47;42.20;;;3.40;99.90;;;;;;5113183;28;20176;-57
2022/01/25 08:45:28;;;;;;;69.43;42.23;;;3.40;99.90;;;;;;5095633;28;20201;-57
2022/01/25 08:47:54;;;;;;;66.70;41.10;;;3.50;99.90;;;;;;5114801;28;20176;-57
2022/01/25 08:50:20;;;;;;;64.23;39.50;;;3.60;99.90;;;;;;5113331;28;20191;-56
2022/01/25 08:52:46;;;;;;;63.07;38.67;;;3.40;99.90;;;;;;5114441;28;20183;-57
2022/01/25 08:55:11;;;;;;;63.15;39.40;;;3.40;99.90;;;;;;5113261;28;20610;-57
2022/01/25 08:57:37;;;;;;;70.67;42.50;;;3.70;99.90;;;;;;5114672;27;20177;-57
2022/01/25 09:00:07;;;;;;;66.03;39.40;;;3.70;99.90;;;;;;5113058;28;20660;-57
2022/01/25 09:02:32;;;;;;;69.90;40.20;;;3.60;99.90;;;;;;5113998;28;20169;-57
2022/01/25 09:04:58;;;;;;;68.70;40.50;;;3.70;99.90;;;;;;5096114;28;20177;-55
2022/01/25 09:07:24;;;;;;;64.80;39.47;;;3.80;99.90;;;;;;5114120;28;20656;-57
2022/01/25 09:09:49;;;;;;;64.03;39.73;;;3.80;99.90;;;;;;5113866;28;20184;-57
2022/01/25 09:12:15;;;;;;;70.73;43.60;;;3.90;99.90;;;;;;5112914;28;20181;-57
2022/01/25 09:14:43;;;;;;;73.10;43.20;;;3.90;99.90;;;;;;5112908;28;20629;-57
2022/01/25 09:17:10;;;;;;;71.75;43.10;;;4.00;99.90;;;;;;5114013;28;20245;-57
2022/01/25 09:19:36;;;;;;;72.50;44.10;;;3.90;99.90;;;;;;5113995;28;20611;-58
2022/01/25 09:22:02;;;;;;;66.20;40.20;;;4.00;99.90;;;;;;5095835;28;20561;-57
2022/01/25 09:24:28;;;;;;;65.68;42.38;;;4.10;99.90;;;;;;5113879;28;20220;-56
2022/01/25 09:26:54;;;;;;;63.27;39.60;;;4.10;99.90;;;;;;5113942;28;20535;-56
2022/01/25 09:29:19;;;;;;;61.13;39.10;;;4.20;99.90;;;;;;5114027;28;20576;-57
2022/01/25 09:31:45;;;;;;;62.77;39.70;;;4.10;99.90;;;;;;5113911;28;20259;-58
2022/01/25 09:34:12;;;;;;;65.18;39.45;;;4.10;99.90;;;;;;5113873;28;20225;-55
2022/01/25 09:36:38;;;;;;;60.72;38.53;;;4.10;99.90;;;;;;5112846;28;20248;-57
2022/01/25 09:39:03;;;;;;;63.35;40.45;;;4.20;99.90;;;;;;5113924;28;20220;-57
2022/01/25 09:41:30;;;;;;;64.97;40.40;;;4.20;99.90;;;;;;5113827;28;20189;-57
2022/01/25 09:43:56;;;;;;;69.33;40.57;;;4.20;99.90;;;;;;5113756;28;20173;-56
2022/01/25 09:46:21;;;;;;;65.93;41.83;;;4.20;99.90;;;;;;5112357;28;20200;-57
2022/01/25 09:48:48;;;;;;;61.03;38.63;;;4.20;99.90;;;;;;5113542;28;20189;-56
2022/01/25 09:51:17;;;;;;;65.20;40.35;;;4.20;99.90;;;;;;5113763;28;20263;-57
2022/01/25 09:53:42;;;;;;;61.35;38.83;;;4.20;99.90;;;;;;5113730;28;20686;-57
2022/01/25 09:56:08;;;;;;;66.73;40.20;;;4.20;99.90;;;;;;5113422;28;20211;-56
2022/01/25 09:58:34;;;;;;;62.53;40.28;;;4.20;99.90;;;;;;5117775;28;20214;-57
2022/01/25 10:01:01;;;;;;;63.38;40.22;;;4.20;99.90;;;;;;5117800;28;20199;-57
2022/01/25 10:03:36;;;;;;;65.10;40.33;;;4.30;99.90;;;;;;5117946;28;20177;-57
2022/01/25 10:06:03;;;;;;;61.63;39.95;;;4.40;99.90;;;;;;5117876;28;20218;-56
2022/01/25 10:08:37;;;;;;;64.88;39.65;;;4.30;99.90;;;;;;5117266;28;20180;-57
2022/01/25 10:11:05;;;;;;;65.35;39.72;;;4.30;99.90;;;;;;5117691;28;20218;-57
2022/01/25 10:13:36;;;;;;;62.40;38.80;;;4.40;99.90;;;;;;5117324;28;20217;-57
2022/01/25 10:16:04;;;;;;;63.67;41.15;;;4.40;99.90;;;;;;5117144;28;20195;-56
2022/01/25 10:18:41;;;;;;;62.38;38.72;;;4.50;99.90;;;;;;5117749;28;20537;-56
2022/01/25 10:21:12;;;;;;;61.50;39.42;;;4.50;99.90;;;;;;5117109;28;20233;-56
2022/01/25 10:23:40;;;;;;;68.57;43.13;;;4.60;99.90;;;;;;5116173;28;20164;-57
2022/01/25 10:26:07;;;;;;;61.17;39.03;;;4.60;99.90;;;;;;5116122;28;20180;-56
2022/01/25 10:28:33;;;;;;;59.15;38.83;;;4.60;99.90;;;;;;5116482;28;20181;-57
2022/01/25 10:31:04;;;;;;;59.40;37.78;;;4.50;99.90;;;;;;5117607;28;20180;-57
2022/01/25 10:33:36;;;;;;;62.92;37.60;;;4.50;99.90;;;;;;5116911;27;20168;-57
2022/01/25 10:36:20;;;;;;;60.92;38.65;;;4.50;99.90;;;;;;5117301;28;20510;-57
2022/01/25 10:38:48;;;;;;;61.63;39.80;;;4.50;99.90;;;;;;5117288;28;20203;-57
2022/01/25 10:41:19;;;;;;;62.75;40.13;;;4.60;99.90;;;;;;5116972;28;20177;-56
2022/01/25 10:43:47;;;;;;;60.58;38.28;;;4.50;99.90;;;;;;5116595;28;20177;-57
2022/01/25 10:46:26;;;;;;;62.03;39.75;;;4.30;99.90;;;;;;5115503;28;20247;-55
2022/01/25 10:49:05;;;;;;;65.65;38.80;;;4.40;99.90;;;;;;5116604;28;20574;-56
2022/01/25 10:51:38;;;;;;;61.63;37.83;;;4.10;99.90;;;;;;5116611;28;20161;-55
2022/01/25 10:54:04;;;;;;;64.18;38.83;;;4.10;99.90;;;;;;5116748;27;20279;-56
2022/01/25 10:56:47;;;;;;;65.20;39.28;;;4.20;99.90;;;;;;5116748;28;20180;-55
2022/01/25 10:59:16;;;;;;;61.25;37.30;;;4.40;99.90;;;;;;5115404;28;20205;-56
2022/01/25 11:01:49;;;;;;;63.72;38.42;;;4.40;99.90;;;;;;5116633;28;20258;-56
2022/01/25 11:04:17;;;;;;;64.43;39.97;;;4.50;99.90;;;;;;5116543;28;20176;-55
2022/01/25 11:06:43;;;;;;;61.67;39.00;;;4.50;99.90;;;;;;5116487;28;20187;-56
2022/01/25 11:09:12;;;;;;;64.00;40.17;;;4.60;99.90;;;;;;5115167;28;20263;-57
2022/01/25 11:11:49;;;;;;;68.13;41.25;;;4.60;99.90;;;;;;5116430;28;20180;-56
2022/01/25 11:17:00;;;;;;;59.47;38.90;;;4.40;99.90;;;;;;5116162;28;20210;-55
2022/01/25 11:19:26;;;;;;;61.40;37.85;;;4.60;99.90;;;;;;5116390;28;20653;-56
2022/01/25 11:21:52;;;;;;;60.20;38.80;;;4.50;99.90;;;;;;5116414;28;20177;-55
2022/01/25 11:24:20;;;;;;;66.47;40.92;;;4.50;99.90;;;;;;5116178;28;20649;-57
2022/01/25 11:26:48;;;;;;;64.87;40.73;;;4.50;99.90;;;;;;5115015;28;20731;-56
2022/01/25 11:29:15;;;;;;;62.42;39.35;;;4.50;99.90;;;;;;5116144;28;20648;-55
2022/01/25 11:31:45;;;;;;;68.15;40.05;;;4.50;99.90;;;;;;5114786;28;20259;-55
2022/01/25 11:34:13;;;;;;;63.08;40.05;;;4.50;99.90;;;;;;5115722;28;20176;-56
2022/01/25 11:36:52;;;;;;;73.07;44.23;;;4.30;99.90;;;;;;5115965;28;20183;-56
2022/01/25 11:39:25;;;;;;;78.83;48.03;;;4.40;99.90;;;;;;5116030;28;20552;-57
2022/01/25 11:42:00;;;;;;;70.53;44.97;;;4.50;99.90;;;;;;5116025;28;20177;-56
2022/01/25 11:44:29;;;;;;;72.70;45.37;;;4.50;99.90;;;;;;5115894;28;20157;-57
2022/01/25 11:47:13;;;;;;;70.85;45.35;;;4.60;99.90;;;;;;5114374;28;20188;-57
2022/01/25 11:49:56;;;;;;;72.97;43.42;;;4.70;99.90;;;;;;5115735;27;20176;-57
2022/01/25 11:52:24;;;;;;;68.10;42.20;;;4.50;99.90;;;;;;5115737;28;20172;-57
2022/01/25 11:55:21;;;;;;;71.23;43.40;;;4.40;99.90;;;;;;5115705;28;20695;-57
2022/01/25 11:57:58;;;;;;;70.63;42.50;;;4.50;99.90;;;;;;5115546;28;20615;-57
2022/01/25 12:00:45;;;;;;;70.88;41.47;;;4.70;99.90;;;;;;5115534;28;20226;-57
2022/01/25 12:03:26;;;;;;;75.15;43.00;;;4.80;99.90;;;;;;5115471;28;20267;-57
2022/01/25 12:06:27;;;;;;;69.50;41.72;;;4.80;99.90;;;;;;5115499;28;20517;-57
2022/01/25 12:11:44;;;;;;;76.45;43.65;;;4.90;99.90;;;;;;5115348;28;20157;-56
2022/01/25 12:14:19;;;;;;;74.15;44.53;;;5.00;99.90;;;;;;5115329;28;20161;-57
2022/01/25 12:17:10;;;;;;;69.43;42.47;;;4.90;99.90;;;;;;5114889;28;20204;-57
2022/01/25 12:19:51;;;;;;;67.97;43.45;;;4.90;99.90;;;;;;5115068;28;20188;-57
2022/01/25 12:22:37;;;;;;;79.53;45.47;;;4.80;99.90;;;;;;5115152;28;20160;-56
2022/01/25 12:25:16;;;;;;;72.50;46.05;;;4.70;99.90;;;;;;5115124;28;20251;-57
2022/01/25 12:27:56;;;;;;;76.43;46.13;;;4.70;99.90;;;;;;5115015;28;20180;-56
2022/01/25 12:30:39;;;;;;;74.43;43.58;;;4.80;99.90;;;;;;5114965;28;20157;-57
2022/01/25 12:33:30;;;;;;;73.72;47.13;;;4.70;99.90;;;;;;5114797;28;20169;-56
2022/01/25 12:36:03;;;;;;;73.47;45.38;;;4.70;99.90;;;;;;5114959;28;20165;-57
2022/01/25 12:38:37;;;;;;;75.88;44.60;;;4.90;99.90;;;;;;5114633;28;20213;-57
2022/01/25 12:41:15;;;;;;;77.63;44.33;;;5.10;99.90;;;;;;5114759;28;20171;-57
2022/01/25 12:43:50;;;;;;;73.40;45.33;;;5.10;99.90;;;;;;5114728;28;20199;-57
2022/01/25 12:46:30;;;;;;;73.93;45.40;;;5.00;99.90;;;;;;5114583;28;20261;-57
2022/01/25 12:49:01;;;;;;;76.20;46.45;;;5.10;99.90;;;;;;5114806;28;20491;-57
2022/01/25 12:51:29;;;;;;;71.18;43.58;;;5.10;99.90;;;;;;5114574;28;20168;-57
2022/01/25 12:53:57;;;;;;;70.50;45.50;;;5.00;99.90;;;;;;5114476;28;20181;-57
2022/01/25 12:56:42;;;;;;;69.00;44.38;;;5.10;99.90;;;;;;5114504;28;20165;-57
2022/01/25 12:59:14;;;;;;;71.13;43.88;;;5.20;99.90;;;;;;5114335;28;20724;-56
2022/01/25 13:01:42;;;;;;;75.68;48.33;;;5.20;99.90;;;;;;5113122;28;20522;-57
2022/01/25 13:04:10;;;;;;;71.85;44.40;;;5.20;99.90;;;;;;5114258;28;20571;-57
2022/01/25 13:06:43;;;;;;;72.32;44.63;;;5.20;99.90;;;;;;5114245;28;20179;-57
2022/01/25 13:09:19;;;;;;;70.40;43.60;;;5.30;99.90;;;;;;5114230;28;20630;-57
2022/01/25 13:17:12;;;;;;;75.35;44.05;;;5.10;99.90;;;;;;5114219;28;20249;-57
2022/01/25 13:20:06;;;;;;;78.68;45.22;;;5.00;99.90;;;;;;5113937;28;20657;-56
2022/01/25 13:22:40;;;;;;;73.57;43.33;;;4.90;99.90;;;;;;5110556;28;20279;-56
2022/01/25 13:51:43;;;;;;;82.13;44.97;;;4.90;99.90;;;;;;5338559;22;21088;-61
2022/01/25 13:54:12;;;;;;;79.05;45.88;;;5.00;99.90;;;;;;5012821;28;20242;-60
2022/01/25 13:56:38;;;;;;;80.53;46.17;;;5.20;99.90;;;;;;5013297;28;20535;-60
2022/01/25 13:59:06;;;;;;;76.25;44.80;;;5.20;99.90;;;;;;5013215;28;20303;-63
2022/01/25 14:01:35;;;;;;;76.35;44.50;;;5.10;99.90;;;;;;5013136;28;20678;-62
2022/01/25 14:04:02;;;;;;;74.63;45.88;;;5.10;99.90;;;;;;5013150;28;20180;-63
2022/01/25 14:06:31;;;;;;;79.47;45.50;;;5.10;99.90;;;;;;5013294;28;20176;-63
2022/01/25 14:09:03;;;;;;;75.38;46.60;;;5.00;99.90;;;;;;5013202;28;20186;-61
2022/01/25 14:11:37;;;;;;;75.97;46.10;;;5.10;99.90;;;;;;5013125;28;20218;-63
2022/01/25 14:23:21;;;;;;;69.82;42.33;;;5.10;99.90;;;;;;5013612;28;20203;-62
2022/01/25 14:25:45;;;;;;;77.63;45.75;;;5.10;99.90;;;;;;5012784;28;20530;-63
2022/01/25 14:28:14;;;;;;;78.13;45.75;;;5.00;99.90;;;;;;5013016;28;20172;-63
2022/01/25 14:30:45;;;;;;;74.25;46.03;;;5.00;99.90;;;;;;5012909;28;20184;-62
2022/01/25 14:33:16;;;;;;;78.45;43.83;;;4.80;99.90;;;;;;5012928;28;20183;-61
2022/01/25 14:35:53;;;;;;;79.22;44.20;;;5.00;99.90;;;;;;5012917;28;20176;-61
2022/01/25 14:38:36;;;;;;;76.95;44.55;;;5.00;99.90;;;;;;5012899;28;20183;-61
2022/01/25 14:41:09;;;;;;;86.20;45.63;;;4.90;99.90;;;;;;5012815;28;20248;-63
2022/01/25 14:43:38;;;;;;;77.75;45.28;;;4.90;99.90;;;;;;5014284;28;20183;-61
2022/01/25 14:46:09;;;;;;;72.47;44.47;;;4.90;99.90;;;;;;5016461;28;20686;-63
2022/01/25 14:48:36;;;;;;;74.15;44.08;;;5.00;99.90;;;;;;5016246;28;20185;-62
2022/01/25 14:51:12;;;;;;;71.32;42.95;;;5.10;99.90;;;;;;5016269;28;20263;-61
2022/01/25 14:53:43;;;;;;;70.10;42.40;;;5.00;99.90;;;;;;5016305;28;20334;-61
2022/01/25 14:56:12;;;;;;;69.05;43.05;;;5.10;99.90;;;;;;5016031;28;20211;-60
2022/01/25 15:01:21;;;;;;;75.93;45.33;;;5.10;99.90;;;;;;5016173;28;20198;-61
2022/01/25 15:03:49;;;;;;;75.07;45.90;;;4.90;99.90;;;;;;5016042;28;20180;-61
2022/01/25 15:06:18;;;;;;;70.45;43.53;;;4.80;99.90;;;;;;5015893;28;20187;-61
2022/01/25 15:08:56;;;;;;;76.57;42.92;;;4.80;99.90;;;;;;5016083;28;20694;-63
2022/01/25 15:11:23;;;;;;;73.95;44.53;;;4.80;99.90;;;;;;5015911;28;20180;-62
2022/01/25 15:13:57;;;;;;;78.28;46.47;;;4.80;99.90;;;;;;5015804;28;20192;-62
2022/01/25 15:16:23;;;;;;;84.47;47.92;;;4.90;99.90;;;;;;5015669;28;20632;-63
2022/01/25 15:18:49;;;;;;;73.90;44.83;;;5.00;99.90;;;;;;5015546;28;20210;-60
2022/01/25 15:21:16;;;;;;;74.90;44.70;;;5.00;99.90;;;;;;5015785;28;20192;-63
2022/01/25 15:23:46;;;;;;;77.63;45.53;;;4.80;99.90;;;;;;5015855;28;20180;-63